TimeCST,TemperatureF,Dew PointF,Humidity,Sea Level PressureIn,VisibilityMPH,Wind Direction,Wind SpeedMPH,Gust SpeedMPH,PrecipitationIn,Events,Conditions,WindDirDegrees,DateUTC
12:15 AM,31.1,31.1,100,29.64,10.0,NNW,18.4,-,N/A,,Overcast,330,2013-02-27 06:15:00
12:35 AM,31.1,30.9,99,29.64,10.0,NNW,16.1,-,N/A,,Overcast,330,2013-02-27 06:35:00
12:55 AM,31.1,30.7,99,29.65,10.0,NNW,18.4,-,N/A,,Overcast,330,2013-02-27 06:55:00
1:15 AM,31.1,30.6,98,29.65,10.0,NNW,16.1,-,N/A,,Overcast,330,2013-02-27 07:15:00
1:35 AM,31.1,30.6,98,29.65,10.0,NNW,16.1,-,N/A,,Overcast,330,2013-02-27 07:35:00
1:55 AM,31.3,30.4,96,29.66,10.0,NNW,16.1,-,N/A,,Overcast,330,2013-02-27 07:55:00
2:15 AM,31.1,30.2,96,29.66,10.0,NNW,16.1,-,N/A,,Overcast,330,2013-02-27 08:15:00
2:35 AM,31.1,30.0,96,29.65,10.0,NNW,15.0,-,N/A,,Overcast,330,2013-02-27 08:35:00
2:55 AM,30.9,29.8,96,29.65,10.0,NNW,15.0,-,N/A,,Overcast,330,2013-02-27 08:55:00
3:15 AM,30.7,29.8,96,29.65,10.0,NW,13.8,-,N/A,,Overcast,320,2013-02-27 09:15:00
3:35 AM,30.6,29.8,97,29.67,7.0,NW,15.0,-,N/A,,Overcast,320,2013-02-27 09:35:00
3:55 AM,30.4,30.0,99,29.67,7.0,NW,13.8,-,N/A,,Overcast,320,2013-02-27 09:55:00
4:15 AM,30.2,30.0,99,29.67,5.0,NNW,15.0,-,N/A,Rain,Freezing Rain,330,2013-02-27 10:15:00
4:35 AM,30.2,29.8,99,29.67,5.0,NW,15.0,-,N/A,,Overcast,320,2013-02-27 10:35:00
4:55 AM,30.2,29.8,99,29.67,5.0,NW,13.8,-,N/A,,Overcast,320,2013-02-27 10:55:00
5:15 AM,30.2,29.8,99,29.67,7.0,NW,13.8,-,N/A,,Overcast,320,2013-02-27 11:15:00
5:35 AM,30.0,29.3,97,29.67,7.0,NW,12.7,-,N/A,,Overcast,320,2013-02-27 11:35:00
5:55 AM,30.2,30.2,100,29.68,7.0,NW,12.7,-,N/A,,Overcast,310,2013-02-27 11:55:00
6:15 AM,30.0,29.3,97,29.68,7.0,NW,12.7,-,N/A,,Overcast,310,2013-02-27 12:15:00
6:35 AM,30.0,29.7,99,29.69,3.0,NW,11.5,-,N/A,Snow,Light Snow,310,2013-02-27 12:35:00
6:55 AM,29.8,29.5,99,29.70,1.2,NW,12.7,-,N/A,Snow,Light Snow,310,2013-02-27 12:55:00
7:15 AM,30.0,29.7,99,29.71,2.0,NW,10.4,-,N/A,Snow,Light Snow,310,2013-02-27 13:15:00
7:35 AM,30.0,29.7,99,29.71,1.5,NW,10.4,-,0.01,Snow,Light Snow,310,2013-02-27 13:35:00
7:55 AM,30.2,29.8,99,29.71,2.0,NW,10.4,-,0.01,Snow,Light Snow,310,2013-02-27 13:55:00
8:15 AM,30.2,29.8,99,29.72,2.5,NW,11.5,-,N/A,Snow,Light Snow,310,2013-02-27 14:15:00
8:35 AM,30.2,29.8,99,29.72,3.0,NW,11.5,-,N/A,Snow,Light Snow,310,2013-02-27 14:35:00
8:55 AM,30.2,29.3,96,29.73,3.0,NW,11.5,-,N/A,Snow,Light Snow,310,2013-02-27 14:55:00
9:15 AM,30.2,29.5,97,29.73,5.0,WNW,12.7,-,N/A,,Overcast,300,2013-02-27 15:15:00
9:35 AM,30.2,29.3,96,29.73,5.0,WNW,13.8,-,N/A,Snow,Light Snow,300,2013-02-27 15:35:00
9:55 AM,30.7,29.3,94,29.73,7.0,WNW,13.8,-,N/A,,Overcast,300,2013-02-27 15:55:00
10:15 AM,30.9,29.7,95,29.73,4.0,WNW,13.8,-,N/A,Snow,Light Snow,300,2013-02-27 16:15:00
10:35 AM,31.1,30.0,96,29.73,2.5,NW,15.0,-,N/A,Snow,Light Snow,310,2013-02-27 16:35:00
10:55 AM,31.3,30.2,96,29.73,2.0,WNW,15.0,-,N/A,Snow,Light Snow,300,2013-02-27 16:55:00
11:15 AM,32.0,30.2,93,29.73,7.0,WNW,15.0,-,N/A,,Overcast,300,2013-02-27 17:15:00
11:35 AM,32.0,30.2,93,29.73,7.0,NW,16.1,-,N/A,Snow,Light Snow,310,2013-02-27 17:35:00
11:55 AM,32.0,30.2,93,29.73,7.0,WNW,12.7,-,N/A,,Overcast,300,2013-02-27 17:55:00
12:15 PM,32.0,30.4,94,29.73,5.0,WNW,15.0,-,N/A,,Overcast,300,2013-02-27 18:15:00
12:35 PM,32.0,30.6,94,29.73,2.5,WNW,15.0,-,N/A,Snow,Light Snow,300,2013-02-27 18:35:00
12:55 PM,32.0,30.7,95,29.73,2.5,NW,12.7,-,N/A,Snow,Light Snow,310,2013-02-27 18:55:00
1:15 PM,32.0,31.1,96,29.74,1.8,WNW,13.8,-,N/A,Snow,Light Snow,300,2013-02-27 19:15:00
1:35 PM,31.8,30.9,96,29.74,2.0,NW,16.1,-,N/A,Snow,Light Snow,310,2013-02-27 19:35:00
1:55 PM,32.0,31.1,96,29.74,2.5,NW,16.1,-,N/A,Snow,Light Snow,310,2013-02-27 19:55:00
2:15 PM,32.0,31.1,96,29.75,2.0,NW,16.1,-,N/A,Snow,Light Snow,310,2013-02-27 20:15:00
2:35 PM,32.0,31.1,96,29.75,2.5,WNW,16.1,-,N/A,Snow,Light Snow,300,2013-02-27 20:35:00
2:55 PM,31.8,31.1,97,29.76,2.5,WNW,16.1,-,N/A,Snow,Light Snow,300,2013-02-27 20:55:00
3:15 PM,32.0,30.9,96,29.77,4.0,WNW,15.0,-,N/A,Snow,Light Snow,300,2013-02-27 21:15:00
3:35 PM,32.0,30.9,96,29.77,4.0,WNW,16.1,-,N/A,Snow,Light Snow,300,2013-02-27 21:35:00
3:55 PM,31.8,31.1,97,29.77,2.0,WNW,15.0,-,N/A,Snow,Light Snow,300,2013-02-27 21:55:00
4:15 PM,31.8,31.1,97,29.78,1.8,WNW,15.0,-,N/A,Snow,Light Snow,300,2013-02-27 22:15:00
4:35 PM,31.6,31.1,98,29.79,3.0,WNW,15.0,-,N/A,Snow,Light Snow,300,2013-02-27 22:35:00
4:55 PM,31.6,31.1,98,29.79,3.0,WNW,15.0,-,N/A,Snow,Light Snow,300,2013-02-27 22:55:00
5:15 PM,31.5,30.9,98,29.80,4.0,WNW,13.8,-,N/A,Snow,Light Snow,300,2013-02-27 23:15:00
5:35 PM,31.1,30.6,98,29.80,7.0,WNW,15.0,-,N/A,,Overcast,300,2013-02-27 23:35:00
5:55 PM,31.6,30.6,96,29.81,7.0,WNW,17.3,-,N/A,,Overcast,300,2013-02-27 23:55:00
6:15 PM,31.6,30.7,96,29.82,7.0,NW,16.1,-,N/A,,Overcast,310,2013-02-28 00:15:00
6:35 PM,31.6,30.7,96,29.82,7.0,WNW,15.0,-,N/A,,Overcast,300,2013-02-28 00:35:00
6:55 PM,31.5,30.6,96,29.83,7.0,NW,15.0,-,N/A,,Overcast,310,2013-02-28 00:55:00
7:15 PM,31.3,30.4,96,29.83,7.0,NW,15.0,-,N/A,,Overcast,310,2013-02-28 01:15:00
7:35 PM,31.5,30.4,96,29.83,7.0,NW,15.0,-,N/A,,Overcast,310,2013-02-28 01:35:00
7:55 PM,31.5,30.2,95,29.83,7.0,NW,13.8,-,N/A,Snow,Light Snow,310,2013-02-28 01:55:00
8:15 PM,31.5,30.4,96,29.84,7.0,NW,13.8,-,N/A,Snow,Light Snow,310,2013-02-28 02:15:00
8:35 PM,31.6,30.2,94,29.84,10.0,NW,15.0,-,N/A,,Overcast,310,2013-02-28 02:35:00
8:55 PM,31.8,30.6,95,29.84,10.0,NW,15.0,-,N/A,,Overcast,310,2013-02-28 02:55:00
9:15 PM,31.8,30.6,95,29.85,10.0,NW,15.0,-,N/A,,Overcast,310,2013-02-28 03:15:00
9:35 PM,31.8,30.7,96,29.85,10.0,WNW,15.0,-,N/A,,Overcast,300,2013-02-28 03:35:00
9:55 PM,31.8,30.6,95,29.85,10.0,NW,15.0,-,N/A,,Overcast,310,2013-02-28 03:55:00
10:15 PM,31.8,30.6,95,29.85,10.0,NW,15.0,-,N/A,,Overcast,310,2013-02-28 04:15:00
10:35 PM,32.0,30.6,94,29.85,10.0,WNW,15.0,-,N/A,,Overcast,300,2013-02-28 04:35:00
10:55 PM,32.0,30.6,94,29.85,10.0,NW,15.0,-,N/A,,Overcast,310,2013-02-28 04:55:00
11:15 PM,32.0,30.4,94,29.85,10.0,NW,15.0,-,N/A,,Overcast,310,2013-02-28 05:15:00
11:35 PM,31.8,30.6,95,29.86,10.0,WNW,15.0,-,N/A,,Overcast,300,2013-02-28 05:35:00
11:55 PM,32.0,30.9,96,29.86,10.0,WNW,15.0,-,N/A,,Overcast,300,2013-02-28 05:55:00